Time;durP1;ratioP1;P1;durP2;ratioP2;P2;SDS_P1;SDS_P2;PMS_P1;PMS_P2;Temp;Humidity;BMP_temperature;BMP_pressure;BME280_temperature;BME280_humidity;BME280_pressure;Samples;Min_cycle;Max_cycle;Signal;HPM_P1;HPM_P2
2023/11/12 05:01:14;;;;;;;12.88;8.55;;;7.70;99.90;;;;;;5582299;23;20275;-73
2023/11/12 05:03:41;;;;;;;11.13;8.05;;;7.70;99.90;;;;;;5000184;28;20215;-72
2023/11/12 05:06:09;;;;;;;13.82;8.30;;;7.70;99.90;;;;;;5000470;28;20239;-74
2023/11/12 05:08:35;;;;;;;13.68;8.48;;;7.70;99.90;;;;;;5000154;28;20208;-72
2023/11/12 05:11:02;;;;;;;13.20;8.27;;;7.70;99.90;;;;;;4989529;28;20243;-73
2023/11/12 05:13:29;;;;;;;14.60;7.72;;;7.70;99.90;;;;;;4981219;28;20225;-72
2023/11/12 05:15:56;;;;;;;11.88;6.60;;;7.70;99.90;;;;;;4987453;28;20259;-75
2023/11/12 05:18:24;;;;;;;10.93;7.75;;;7.70;99.90;;;;;;4985087;28;21045;-72
2023/11/12 05:20:51;;;;;;;8.18;7.35;;;7.70;99.90;;;;;;4988121;28;20221;-72
2023/11/12 05:23:18;;;;;;;18.25;7.63;;;7.70;99.90;;;;;;4986323;28;20201;-74
2023/11/12 05:25:45;;;;;;;8.85;6.55;;;7.80;99.90;;;;;;4987740;28;20210;-75
2023/11/12 05:28:11;;;;;;;9.85;7.85;;;7.80;99.90;;;;;;4991099;28;20230;-72
2023/11/12 05:30:39;;;;;;;11.32;7.75;;;7.80;99.90;;;;;;4988067;28;20259;-73
2023/11/12 05:33:06;;;;;;;14.23;8.55;;;7.80;99.90;;;;;;4987408;28;20216;-72
2023/11/12 05:35:34;;;;;;;8.10;7.30;;;7.70;99.90;;;;;;4989123;28;20205;-73
2023/11/12 05:38:01;;;;;;;10.10;6.63;;;7.70;99.90;;;;;;4990331;28;20200;-73
2023/11/12 05:40:29;;;;;;;10.15;7.90;;;7.70;99.90;;;;;;4981851;28;20306;-72
2023/11/12 05:42:56;;;;;;;8.93;6.40;;;7.70;99.90;;;;;;4981375;28;20301;-72
2023/11/12 05:45:22;;;;;;;11.95;7.15;;;7.70;99.90;;;;;;4991092;28;20242;-73
2023/11/12 05:47:49;;;;;;;8.38;5.88;;;7.70;99.90;;;;;;4989984;28;20207;-73
2023/11/12 05:50:16;;;;;;;9.68;7.05;;;7.70;99.90;;;;;;4985026;28;20236;-72
2023/11/12 05:52:44;;;;;;;8.57;6.78;;;7.70;99.90;;;;;;4990806;28;20204;-73
2023/11/12 05:55:11;;;;;;;8.65;7.32;;;7.70;99.90;;;;;;4974998;28;20211;-74
2023/11/12 05:57:38;;;;;;;8.18;6.32;;;7.70;99.90;;;;;;4978532;28;20209;-72
2023/11/12 06:00:07;;;;;;;7.72;6.93;;;7.70;99.90;;;;;;4978644;28;20769;-72
2023/11/12 06:02:34;;;;;;;8.40;6.22;;;7.70;99.90;;;;;;4976301;28;20302;-72
2023/11/12 06:05:01;;;;;;;9.73;6.20;;;7.70;99.90;;;;;;4980526;28;20215;-74
2023/11/12 06:07:28;;;;;;;7.97;6.40;;;7.70;99.90;;;;;;4979440;28;20209;-73
2023/11/12 06:09:56;;;;;;;7.63;6.93;;;7.70;99.90;;;;;;4991476;28;20205;-73
2023/11/12 06:12:23;;;;;;;8.75;6.75;;;7.60;99.90;;;;;;4979141;28;20242;-73
2023/11/12 06:14:49;;;;;;;10.23;7.47;;;7.60;99.90;;;;;;4982378;28;20208;-73
2023/11/12 06:17:16;;;;;;;10.13;6.90;;;7.60;99.90;;;;;;4984855;28;20575;-74
2023/11/12 06:19:43;;;;;;;8.32;7.00;;;7.60;99.90;;;;;;4990284;28;20210;-74
2023/11/12 06:22:10;;;;;;;7.85;6.18;;;7.60;99.90;;;;;;4980371;28;20229;-73
2023/11/12 06:24:36;;;;;;;7.47;6.35;;;7.60;99.90;;;;;;4979095;28;20207;-73
2023/11/12 06:27:05;;;;;;;7.60;6.20;;;7.60;99.90;;;;;;4977895;28;20208;-74
2023/11/12 06:29:32;;;;;;;9.68;7.10;;;7.60;99.90;;;;;;4983251;28;20614;-73
2023/11/12 06:31:58;;;;;;;9.07;6.60;;;7.60;99.90;;;;;;4984823;28;20232;-73
2023/11/12 06:34:25;;;;;;;9.63;7.18;;;7.60;99.90;;;;;;4979440;28;20241;-73
2023/11/12 06:36:52;;;;;;;9.82;7.60;;;7.60;99.90;;;;;;4987845;28;20295;-74
2023/11/12 06:39:18;;;;;;;13.43;7.63;;;7.60;99.90;;;;;;4986797;28;20208;-72
2023/11/12 06:41:45;;;;;;;14.35;8.73;;;7.60;99.90;;;;;;4980571;28;20223;-73
2023/11/12 06:44:13;;;;;;;14.93;8.93;;;7.60;99.90;;;;;;4989635;28;20200;-72
2023/11/12 06:46:44;;;;;;;16.08;9.07;;;7.60;99.90;;;;;;4988994;28;20213;-73
2023/11/12 06:49:11;;;;;;;11.65;8.10;;;7.60;99.90;;;;;;4977895;28;20205;-73
2023/11/12 06:51:38;;;;;;;12.82;8.32;;;7.50;99.90;;;;;;4988194;28;20703;-74
2023/11/12 06:54:05;;;;;;;14.13;8.45;;;7.60;99.90;;;;;;4985854;28;20227;-73
2023/11/12 06:56:33;;;;;;;12.73;8.60;;;7.50;99.90;;;;;;4987652;28;20209;-76
2023/11/12 06:59:00;;;;;;;17.52;9.75;;;7.50;99.90;;;;;;4988016;28;20216;-74
2023/11/12 07:01:28;;;;;;;19.60;10.75;;;7.50;99.90;;;;;;4980864;28;20240;-72
2023/11/12 07:03:54;;;;;;;16.40;10.90;;;7.50;99.90;;;;;;4980840;28;20220;-73
2023/11/12 07:06:21;;;;;;;20.30;10.02;;;7.50;99.90;;;;;;4982076;28;20207;-74
2023/11/12 07:08:48;;;;;;;15.68;10.27;;;7.50;99.90;;;;;;4990709;28;20553;-73
2023/11/12 07:11:16;;;;;;;15.82;9.40;;;7.50;99.90;;;;;;4990612;28;20220;-74
2023/11/12 07:13:43;;;;;;;17.40;10.40;;;7.50;99.90;;;;;;4992368;28;20347;-74
2023/11/12 07:16:16;;;;;;;14.48;8.75;;;7.40;99.90;;;;;;4992284;28;20223;-74
2023/11/12 07:18:44;;;;;;;15.00;9.18;;;7.50;99.90;;;;;;4988651;28;20235;-74
2023/11/12 07:21:12;;;;;;;14.23;9.00;;;7.50;99.90;;;;;;4991987;28;20311;-74
2023/11/12 07:23:38;;;;;;;17.50;8.75;;;7.50;99.90;;;;;;4985127;28;20261;-74
2023/11/12 07:26:05;;;;;;;12.25;8.88;;;7.50;99.90;;;;;;4993516;28;20218;-73
2023/11/12 07:28:32;;;;;;;15.48;8.55;;;7.50;99.90;;;;;;4987077;28;20915;-73
2023/11/12 07:30:59;;;;;;;12.52;9.73;;;7.60;99.90;;;;;;4987889;28;20232;-71
2023/11/12 07:33:25;;;;;;;18.15;10.43;;;7.60;99.90;;;;;;4989095;28;20642;-72
2023/11/12 07:35:53;;;;;;;11.40;8.65;;;7.60;99.90;;;;;;4992286;28;20213;-72
2023/11/12 07:38:20;;;;;;;17.27;9.77;;;7.60;99.90;;;;;;4990964;28;20208;-72
2023/11/12 07:40:47;;;;;;;17.35;9.40;;;7.60;99.90;;;;;;4988778;28;20229;-72
2023/11/12 07:43:15;;;;;;;14.77;8.82;;;7.60;99.90;;;;;;4977026;28;20208;-72
2023/11/12 07:45:41;;;;;;;19.92;9.25;;;7.60;99.90;;;;;;4984149;28;20215;-73
2023/11/12 07:48:08;;;;;;;12.10;8.30;;;7.60;99.90;;;;;;4981984;28;20296;-74
2023/11/12 07:50:37;;;;;;;12.10;9.63;;;7.60;99.90;;;;;;4986530;28;20224;-72
2023/11/12 07:53:05;;;;;;;14.98;10.45;;;7.60;99.90;;;;;;4985953;28;20719;-72
2023/11/12 07:55:32;;;;;;;17.42;10.88;;;7.60;99.90;;;;;;4983089;28;20213;-72
2023/11/12 07:57:59;;;;;;;31.02;21.55;;;7.70;99.90;;;;;;4985954;28;20215;-72
2023/11/12 08:00:26;;;;;;;14.18;10.60;;;7.70;99.90;;;;;;4982494;28;20246;-73
2023/11/12 08:02:52;;;;;;;17.15;12.15;;;7.70;99.90;;;;;;4985063;28;20202;-74
2023/11/12 08:05:20;;;;;;;24.85;12.43;;;7.60;99.90;;;;;;4980830;28;20665;-73
2023/11/12 08:07:47;;;;;;;44.88;21.42;;;7.60;99.90;;;;;;4983927;28;20211;-73
2023/11/12 08:10:18;;;;;;;19.38;9.82;;;7.70;99.90;;;;;;4988763;28;20204;-73
2023/11/12 08:12:45;;;;;;;12.82;8.73;;;7.70;99.90;;;;;;4982564;28;20254;-73
2023/11/12 08:15:13;;;;;;;27.70;14.00;;;7.70;99.90;;;;;;4988736;28;20200;-73
2023/11/12 08:17:40;;;;;;;14.65;10.30;;;7.70;99.90;;;;;;4985292;28;20205;-75
2023/11/12 08:20:08;;;;;;;16.38;9.48;;;7.60;99.90;;;;;;4983198;28;20220;-74
2023/11/12 08:22:34;;;;;;;15.68;9.88;;;7.60;99.90;;;;;;4982127;28;20214;-73
2023/11/12 08:25:01;;;;;;;15.93;10.80;;;7.70;99.90;;;;;;4987608;28;20205;-73
2023/11/12 08:27:30;;;;;;;11.25;7.75;;;7.70;99.90;;;;;;4983954;28;20210;-74
2023/11/12 08:29:57;;;;;;;20.73;12.93;;;7.70;99.90;;;;;;4983806;28;20299;-73
2023/11/12 08:32:24;;;;;;;16.67;8.38;;;7.70;99.90;;;;;;4987251;28;20236;-73
2023/11/12 08:34:51;;;;;;;14.27;9.18;;;7.70;99.90;;;;;;4984129;28;20214;-73
2023/11/12 08:37:18;;;;;;;10.75;7.85;;;7.70;99.90;;;;;;4985757;28;20206;-73
2023/11/12 08:39:45;;;;;;;17.92;10.77;;;7.70;99.90;;;;;;4981730;28;20202;-72
2023/11/12 08:42:12;;;;;;;17.13;11.23;;;7.80;99.90;;;;;;4985728;28;20244;-73
2023/11/12 08:44:40;;;;;;;19.63;9.30;;;7.80;99.90;;;;;;4978346;28;20211;-73
2023/11/12 08:47:07;;;;;;;24.48;14.15;;;7.70;99.90;;;;;;4981733;28;20201;-73
2023/11/12 08:49:34;;;;;;;13.18;8.18;;;7.80;99.90;;;;;;4985629;28;20209;-74
2023/11/12 08:52:01;;;;;;;23.02;12.90;;;7.80;99.90;;;;;;4981122;28;20235;-73
2023/11/12 08:54:28;;;;;;;14.43;9.35;;;7.80;99.90;;;;;;4983474;28;20296;-73
2023/11/12 08:56:55;;;;;;;21.95;10.60;;;7.80;99.90;;;;;;4978194;28;20301;-73
2023/11/12 08:59:22;;;;;;;14.38;8.23;;;7.90;99.90;;;;;;4989111;28;20232;-73
2023/11/12 09:01:50;;;;;;;17.73;10.25;;;7.90;99.90;;;;;;4987158;28;20232;-73
2023/11/12 09:04:17;;;;;;;25.33;13.20;;;7.90;99.90;;;;;;4976591;28;20210;-73
2023/11/12 09:06:44;;;;;;;24.30;12.35;;;7.90;99.90;;;;;;4976340;28;20614;-74
2023/11/12 09:09:11;;;;;;;22.42;10.90;;;7.90;99.90;;;;;;4992089;28;20211;-73
2023/11/12 09:11:38;;;;;;;13.23;8.73;;;7.90;99.90;;;;;;4984833;28;20276;-73
2023/11/12 09:14:06;;;;;;;14.40;7.80;;;7.90;99.90;;;;;;4985476;28;20220;-73
2023/11/12 09:16:34;;;;;;;11.65;7.65;;;8.00;99.90;;;;;;4991847;28;20210;-72
2023/11/12 09:19:02;;;;;;;11.50;6.40;;;8.00;99.90;;;;;;4991826;28;20633;-74
2023/11/12 09:21:32;;;;;;;17.52;8.75;;;8.00;99.90;;;;;;4985280;28;20232;-73
2023/11/12 09:23:59;;;;;;;15.02;10.73;;;8.00;99.90;;;;;;4989384;28;20212;-73
2023/11/12 09:26:26;;;;;;;13.80;8.15;;;8.10;99.90;;;;;;4976050;28;20273;-73
2023/11/12 09:28:52;;;;;;;12.38;9.05;;;8.20;99.90;;;;;;4983272;28;20682;-74
2023/11/12 09:31:20;;;;;;;13.38;8.02;;;8.30;99.90;;;;;;4986884;28;20230;-73
2023/11/12 09:33:47;;;;;;;11.68;7.30;;;8.30;99.90;;;;;;4973142;28;20219;-74
2023/11/12 09:36:15;;;;;;;11.85;8.25;;;8.20;99.90;;;;;;4980375;28;20279;-73
2023/11/12 09:38:42;;;;;;;12.73;8.00;;;8.20;99.90;;;;;;4991492;28;20292;-73
2023/11/12 09:41:10;;;;;;;10.23;7.80;;;8.30;99.90;;;;;;4984287;28;20238;-73
2023/11/12 09:43:37;;;;;;;11.50;8.65;;;8.30;99.90;;;;;;4972010;28;20214;-74
2023/11/12 09:46:06;;;;;;;11.77;6.95;;;8.40;99.90;;;;;;4986809;28;20211;-73
2023/11/12 09:48:35;;;;;;;15.02;7.78;;;8.40;99.90;;;;;;4981954;28;20269;-73
2023/11/12 09:51:05;;;;;;;14.15;8.05;;;8.50;99.90;;;;;;4985247;28;20665;-74
2023/11/12 09:53:33;;;;;;;13.75;7.57;;;8.70;99.90;;;;;;4977452;28;20712;-73
2023/11/12 09:56:04;;;;;;;10.35;7.05;;;8.70;99.90;;;;;;4985351;28;20652;-73
2023/11/12 09:58:31;;;;;;;14.07;8.52;;;8.80;99.90;;;;;;4984411;28;20214;-73
2023/11/12 10:01:00;;;;;;;11.73;7.20;;;8.80;99.90;;;;;;4984993;28;20309;-73
2023/11/12 10:03:26;;;;;;;11.85;7.28;;;8.80;99.90;;;;;;4985234;28;20214;-74
2023/11/12 10:05:54;;;;;;;11.77;7.00;;;8.90;99.90;;;;;;4987627;28;20211;-74
2023/11/12 10:08:20;;;;;;;10.60;7.60;;;8.90;99.90;;;;;;4981145;28;20270;-73
2023/11/12 10:10:48;;;;;;;10.25;7.15;;;9.00;99.90;;;;;;4979915;28;20323;-73
2023/11/12 10:13:15;;;;;;;12.80;8.00;;;9.10;99.90;;;;;;4990034;28;20361;-73
2023/11/12 10:15:42;;;;;;;12.65;8.70;;;9.20;99.90;;;;;;4976723;28;20238;-72
2023/11/12 10:18:09;;;;;;;17.50;7.78;;;9.30;99.90;;;;;;4987704;28;20211;-73
2023/11/12 10:20:38;;;;;;;14.65;9.02;;;9.40;99.90;;;;;;4984160;28;20227;-73
2023/11/12 10:23:06;;;;;;;11.60;8.27;;;9.40;99.90;;;;;;4980869;28;20289;-73
2023/11/12 10:25:36;;;;;;;12.85;7.85;;;9.30;99.90;;;;;;4985434;28;20204;-72
2023/11/12 10:28:06;;;;;;;15.80;7.82;;;9.30;99.90;;;;;;4985330;28;20248;-73
2023/11/12 10:30:33;;;;;;;16.05;7.88;;;9.30;99.90;;;;;;4983970;28;20848;-73
2023/11/12 10:33:16;;;;;;;12.32;9.40;;;9.30;99.90;;;;;;4985273;28;20329;-72
2023/11/12 10:35:45;;;;;;;24.23;12.52;;;9.20;99.90;;;;;;4984348;28;20690;-72
2023/11/12 10:38:13;;;;;;;13.93;9.93;;;9.20;99.90;;;;;;4986003;28;20572;-73
2023/11/12 10:40:57;;;;;;;15.60;8.40;;;9.20;99.90;;;;;;4987231;28;20230;-72
2023/11/12 10:43:25;;;;;;;13.57;10.02;;;9.20;99.90;;;;;;4990032;28;20546;-73
2023/11/12 10:45:57;;;;;;;11.68;7.95;;;9.20;99.90;;;;;;4984953;28;20211;-72
2023/11/12 10:48:31;;;;;;;10.35;8.50;;;9.20;99.90;;;;;;4988504;28;20211;-73
2023/11/12 10:50:59;;;;;;;16.45;11.23;;;9.30;99.90;;;;;;4987958;28;20219;-73
2023/11/12 10:53:28;;;;;;;13.00;8.98;;;9.30;99.90;;;;;;4990556;28;20231;-72
2023/11/12 10:55:56;;;;;;;13.95;8.23;;;9.40;99.90;;;;;;4994101;28;20211;-72
2023/11/12 10:58:26;;;;;;;11.82;7.63;;;9.30;99.90;;;;;;4989249;28;20623;-72
2023/11/12 11:00:55;;;;;;;12.88;9.02;;;9.30;99.90;;;;;;4988455;28;20236;-72
2023/11/12 11:03:23;;;;;;;12.73;9.18;;;9.30;99.90;;;;;;4987014;28;20211;-73
2023/11/12 11:05:51;;;;;;;15.57;9.02;;;9.30;99.90;;;;;;4986051;28;20267;-73
2023/11/12 11:08:18;;;;;;;14.05;9.52;;;9.30;99.90;;;;;;4983925;28;20210;-72
2023/11/12 11:10:45;;;;;;;11.10;7.55;;;9.30;99.90;;;;;;4985546;28;20287;-72
2023/11/12 11:13:13;;;;;;;14.15;8.25;;;9.30;99.90;;;;;;4991655;28;20294;-73
2023/11/12 11:15:43;;;;;;;10.73;7.50;;;9.30;99.90;;;;;;5011803;23;20268;-73
2023/11/12 11:18:51;;;;;;;11.07;7.85;;;9.20;99.90;;;;;;4993247;28;20234;-73
2023/11/12 11:21:21;;;;;;;14.45;8.15;;;9.20;99.90;;;;;;4993074;28;20207;-74
2023/11/12 11:23:51;;;;;;;14.60;8.15;;;9.30;99.90;;;;;;4993479;28;20199;-75
2023/11/12 11:26:38;;;;;;;10.25;7.88;;;9.30;99.90;;;;;;4991116;28;20289;-75
2023/11/12 11:29:28;;;;;;;13.82;8.50;;;9.40;99.90;;;;;;4965480;28;20225;-75
2023/11/12 11:32:15;;;;;;;11.13;7.65;;;9.40;99.90;;;;;;4980394;28;20717;-75
2023/11/12 11:34:43;;;;;;;15.60;8.93;;;9.40;99.90;;;;;;4986603;28;20214;-75
2023/11/12 11:37:11;;;;;;;12.98;9.15;;;9.50;99.90;;;;;;4986286;28;20648;-75
2023/11/12 11:39:39;;;;;;;12.73;8.50;;;9.50;99.90;;;;;;4980522;28;20217;-75
2023/11/12 11:42:16;;;;;;;17.25;8.70;;;9.50;99.90;;;;;;4962633;28;20203;-75
2023/11/12 11:44:49;;;;;;;11.82;8.30;;;9.50;99.90;;;;;;4977119;28;20207;-74
2023/11/12 11:47:18;;;;;;;9.27;8.32;;;9.40;99.90;;;;;;4983863;28;20258;-75
2023/11/12 11:49:47;;;;;;;14.27;9.32;;;9.40;99.90;;;;;;4976444;28;20219;-75
2023/11/12 11:52:18;;;;;;;12.93;8.57;;;9.40;99.90;;;;;;4982634;28;20231;-75
2023/11/12 11:54:46;;;;;;;15.95;9.15;;;9.40;99.90;;;;;;4977131;28;20249;-74
2023/11/12 11:57:19;;;;;;;12.27;9.10;;;9.40;99.90;;;;;;4985912;28;20314;-74
2023/11/12 11:59:48;;;;;;;10.55;7.28;;;9.40;99.90;;;;;;4976842;28;20216;-74
2023/11/12 12:02:16;;;;;;;10.00;8.15;;;9.40;99.90;;;;;;4982972;28;20266;-75
2023/11/12 12:04:52;;;;;;;13.27;9.60;;;9.40;99.90;;;;;;4981502;28;20224;-74
2023/11/12 12:07:20;;;;;;;12.55;9.95;;;9.40;99.90;;;;;;4991228;28;20223;-75
2023/11/12 12:09:47;;;;;;;18.70;10.70;;;9.40;99.90;;;;;;4984701;28;20219;-74
2023/11/12 12:12:14;;;;;;;14.15;9.30;;;9.40;99.90;;;;;;4982487;28;20226;-74
2023/11/12 12:14:41;;;;;;;12.93;8.98;;;9.50;99.90;;;;;;4987073;28;20214;-74
2023/11/12 12:17:09;;;;;;;11.32;8.90;;;9.40;99.90;;;;;;4986718;28;20693;-75
2023/11/12 12:19:36;;;;;;;23.98;14.32;;;9.40;99.90;;;;;;4984413;28;20206;-74
2023/11/12 12:22:05;;;;;;;10.85;8.70;;;9.50;99.90;;;;;;4975603;28;20207;-74
2023/11/12 12:24:33;;;;;;;20.52;9.27;;;9.50;99.90;;;;;;4987634;28;20211;-75
2023/11/12 12:27:04;;;;;;;15.52;9.55;;;9.50;99.90;;;;;;4986233;28;20610;-74
2023/11/12 12:29:32;;;;;;;12.88;8.35;;;9.40;99.90;;;;;;4981468;28;20211;-74
2023/11/12 12:32:12;;;;;;;10.27;8.18;;;9.50;99.90;;;;;;4982514;28;20212;-75
2023/11/12 12:34:41;;;;;;;11.77;7.43;;;9.50;99.90;;;;;;4988723;28;20214;-74
2023/11/12 12:37:09;;;;;;;8.85;6.85;;;9.60;99.90;;;;;;4989223;28;20227;-75
2023/11/12 12:39:52;;;;;;;12.35;7.78;;;9.50;99.90;;;;;;4976958;28;20233;-74
2023/11/12 12:42:20;;;;;;;9.68;8.15;;;9.50;99.90;;;;;;4975938;28;20209;-75
2023/11/12 12:44:51;;;;;;;12.00;7.63;;;9.50;99.90;;;;;;4972748;28;20203;-75
2023/11/12 12:47:33;;;;;;;9.55;7.95;;;9.50;99.90;;;;;;4975781;28;20613;-75
2023/11/12 12:50:12;;;;;;;9.57;7.25;;;9.50;99.90;;;;;;4981662;28;20211;-75
2023/11/12 12:52:42;;;;;;;11.65;7.40;;;9.50;99.90;;;;;;4973032;28;20794;-76
2023/11/12 12:55:10;;;;;;;9.75;6.75;;;9.40;99.90;;;;;;4966483;28;20257;-75
2023/11/12 12:57:37;;;;;;;7.47;6.53;;;9.30;99.90;;;;;;4977097;28;20302;-75
2023/11/12 13:00:09;;;;;;;8.73;6.00;;;9.30;99.90;;;;;;4978213;28;20270;-75
2023/11/12 13:02:36;;;;;;;10.52;7.70;;;9.30;99.90;;;;;;4978216;28;20236;-75
2023/11/12 13:05:04;;;;;;;9.55;6.57;;;9.30;99.90;;;;;;4991281;28;20204;-75
2023/11/12 13:07:31;;;;;;;8.45;6.90;;;9.30;99.90;;;;;;4988723;28;20236;-76
2023/11/12 13:09:59;;;;;;;12.65;7.53;;;9.40;99.90;;;;;;4974219;28;20267;-76
2023/11/12 13:12:26;;;;;;;15.15;7.68;;;9.30;99.90;;;;;;4982232;28;20214;-76
2023/11/12 13:14:52;;;;;;;7.97;7.28;;;9.40;99.90;;;;;;4981791;28;20254;-76
2023/11/12 13:17:19;;;;;;;10.70;7.68;;;9.40;99.90;;;;;;4983224;28;20785;-75
2023/11/12 13:19:47;;;;;;;11.40;8.02;;;9.40;99.90;;;;;;4989546;28;20246;-76
2023/11/12 13:22:14;;;;;;;11.55;8.13;;;9.40;99.90;;;;;;4985973;28;20206;-76
2023/11/12 13:24:43;;;;;;;12.68;7.35;;;9.50;99.90;;;;;;4993660;28;20219;-74
2023/11/12 13:27:12;;;;;;;11.68;7.72;;;9.50;99.90;;;;;;4975486;28;20227;-74
2023/11/12 13:29:40;;;;;;;7.75;6.95;;;9.50;99.90;;;;;;4983446;28;20215;-74
2023/11/12 13:32:07;;;;;;;8.80;7.85;;;9.50;99.90;;;;;;4965422;28;20203;-74
2023/11/12 13:34:34;;;;;;;10.43;8.00;;;9.50;99.90;;;;;;4987409;28;20723;-74
2023/11/12 13:37:01;;;;;;;12.90;8.60;;;9.50;99.90;;;;;;4984053;28;20235;-74
2023/11/12 13:39:29;;;;;;;10.38;6.53;;;9.50;99.90;;;;;;4977209;28;20207;-74
2023/11/12 13:41:57;;;;;;;12.65;7.55;;;9.50;99.90;;;;;;4986184;28;20296;-74
2023/11/12 13:44:25;;;;;;;12.48;7.40;;;9.50;99.90;;;;;;4985344;28;20211;-74
2023/11/12 13:46:53;;;;;;;12.32;7.68;;;9.50;99.90;;;;;;4989335;28;20258;-74
2023/11/12 13:49:19;;;;;;;14.27;9.93;;;9.40;99.90;;;;;;4987664;28;20206;-74
2023/11/12 13:51:47;;;;;;;11.55;8.38;;;9.50;99.90;;;;;;4979911;28;20581;-74
2023/11/12 13:54:14;;;;;;;18.38;9.82;;;9.50;99.90;;;;;;4990788;28;20238;-75
2023/11/12 13:56:41;;;;;;;11.48;7.72;;;9.50;99.90;;;;;;4989958;28;20226;-74
2023/11/12 13:59:08;;;;;;;9.68;6.88;;;9.40;99.90;;;;;;4965719;28;20667;-74
2023/11/12 14:01:37;;;;;;;9.82;7.70;;;9.40;99.90;;;;;;4976950;28;20242;-75
2023/11/12 14:04:07;;;;;;;8.50;6.85;;;9.40;99.90;;;;;;4980217;28;20221;-75
2023/11/12 14:06:34;;;;;;;8.70;6.80;;;9.50;99.90;;;;;;4969122;28;20315;-74
2023/11/12 14:09:01;;;;;;;7.90;6.47;;;9.50;99.90;;;;;;4985722;28;20226;-74
2023/11/12 14:11:27;;;;;;;10.35;8.10;;;9.50;99.90;;;;;;4980743;28;20216;-74
2023/11/12 14:13:55;;;;;;;13.68;9.25;;;9.50;99.90;;;;;;4990994;28;20654;-74
2023/11/12 14:16:23;;;;;;;9.40;7.43;;;9.50;99.90;;;;;;4986099;28;20267;-74
2023/11/12 14:18:51;;;;;;;10.90;7.57;;;9.50;99.90;;;;;;4970658;28;20215;-74
2023/11/12 14:21:17;;;;;;;11.18;8.13;;;9.50;99.90;;;;;;4985050;28;20230;-74
2023/11/12 14:23:44;;;;;;;13.55;8.75;;;9.50;99.90;;;;;;4974309;28;20299;-74
2023/11/12 14:26:12;;;;;;;11.75;8.98;;;9.50;99.90;;;;;;4991298;28;20223;-74
2023/11/12 14:28:41;;;;;;;9.15;7.70;;;9.60;99.90;;;;;;4987011;28;20706;-74
2023/11/12 14:31:10;;;;;;;9.52;7.40;;;9.60;99.90;;;;;;4979722;28;20208;-74
2023/11/12 14:33:37;;;;;;;8.02;6.80;;;9.60;99.90;;;;;;4969421;28;20232;-74
2023/11/12 14:36:08;;;;;;;10.13;7.90;;;9.60;99.90;;;;;;4975389;28;20231;-74
2023/11/12 14:38:34;;;;;;;9.80;7.53;;;9.50;99.90;;;;;;4985854;28;20217;-75
2023/11/12 14:41:01;;;;;;;9.00;7.68;;;9.50;99.90;;;;;;4994228;28;20211;-75
2023/11/12 14:43:28;;;;;;;13.43;8.07;;;9.50;99.90;;;;;;4987276;28;20201;-75
2023/11/12 14:45:55;;;;;;;10.82;8.25;;;9.40;99.90;;;;;;4973205;28;20233;-75
2023/11/12 14:48:22;;;;;;;9.30;7.85;;;9.40;99.90;;;;;;4987531;28;20222;-75
2023/11/12 14:50:49;;;;;;;9.98;7.80;;;9.40;99.90;;;;;;4971418;28;20679;-75
2023/11/12 14:53:19;;;;;;;12.07;8.77;;;9.30;99.90;;;;;;4986633;28;20234;-75
2023/11/12 14:55:45;;;;;;;12.40;8.70;;;9.30;99.90;;;;;;4977003;28;20721;-75
2023/11/12 14:58:12;;;;;;;10.85;9.20;;;9.30;99.90;;;;;;4971635;28;20207;-75
2023/11/12 15:00:39;;;;;;;12.00;8.32;;;9.30;99.90;;;;;;4982129;28;20215;-75
2023/11/12 15:03:06;;;;;;;10.02;8.05;;;9.30;99.90;;;;;;4979975;28;20212;-75
2023/11/12 15:05:33;;;;;;;11.85;9.30;;;9.20;99.90;;;;;;4981851;28;20238;-75
2023/11/12 15:08:00;;;;;;;14.13;10.20;;;9.20;99.90;;;;;;4984738;28;20220;-74
2023/11/12 15:10:28;;;;;;;12.82;10.65;;;9.20;99.90;;;;;;4991652;28;20217;-74
2023/11/12 15:12:55;;;;;;;11.77;8.45;;;9.30;99.90;;;;;;4975163;28;20256;-75
2023/11/12 15:15:22;;;;;;;10.27;7.82;;;9.20;99.90;;;;;;4972599;28;20226;-74
2023/11/12 15:17:51;;;;;;;15.38;8.65;;;9.20;99.90;;;;;;4981494;28;20218;-74
2023/11/12 15:20:18;;;;;;;13.38;8.55;;;9.10;99.90;;;;;;4975753;28;20662;-75
2023/11/12 15:22:46;;;;;;;11.82;7.85;;;9.20;99.90;;;;;;4974221;28;20600;-75
2023/11/12 15:25:13;;;;;;;15.00;8.43;;;9.20;99.90;;;;;;4972316;28;20682;-74
2023/11/12 15:27:43;;;;;;;11.60;8.55;;;9.10;99.90;;;;;;4967929;28;20294;-75
2023/11/12 15:30:12;;;;;;;13.63;10.25;;;9.00;99.90;;;;;;4970002;28;20222;-73
2023/11/12 15:32:41;;;;;;;14.18;9.48;;;9.00;99.90;;;;;;4972692;28;20215;-73
2023/11/12 15:35:08;;;;;;;13.05;10.05;;;9.00;99.90;;;;;;4968927;28;20229;-74
2023/11/12 15:37:36;;;;;;;12.07;9.25;;;9.00;99.90;;;;;;4975345;28;20227;-74
2023/11/12 15:40:10;;;;;;;13.32;9.35;;;9.00;99.90;;;;;;4975630;28;20207;-74
2023/11/12 15:42:37;;;;;;;12.18;8.80;;;9.00;99.90;;;;;;4974754;28;20265;-74
2023/11/12 15:45:06;;;;;;;13.32;9.35;;;8.90;99.90;;;;;;4974256;28;20203;-74
2023/11/12 15:47:33;;;;;;;13.68;9.90;;;8.90;99.90;;;;;;4975548;28;20253;-74
2023/11/12 15:50:01;;;;;;;11.90;9.13;;;8.90;99.90;;;;;;4975917;28;20204;-75
2023/11/12 15:52:28;;;;;;;11.98;8.40;;;8.90;99.90;;;;;;4975867;28;20234;-76
2023/11/12 15:54:55;;;;;;;16.90;11.00;;;8.90;99.90;;;;;;4976686;28;20656;-75
2023/11/12 15:57:22;;;;;;;15.15;10.25;;;8.90;99.90;;;;;;4968906;28;20744;-74
2023/11/12 15:59:49;;;;;;;23.55;11.00;;;8.80;99.90;;;;;;4975997;28;20216;-74
2023/11/12 16:02:17;;;;;;;16.00;9.38;;;8.80;99.90;;;;;;4976268;28;20218;-74
2023/11/12 16:04:44;;;;;;;14.25;9.48;;;8.80;99.90;;;;;;4974043;28;20222;-74
2023/11/12 16:07:11;;;;;;;15.20;9.27;;;8.80;99.90;;;;;;4973325;28;20231;-74
2023/11/12 16:09:39;;;;;;;13.65;9.43;;;8.80;99.90;;;;;;4976915;28;20596;-74
2023/11/12 16:12:07;;;;;;;14.10;10.43;;;8.80;99.90;;;;;;4974847;28;20220;-75
2023/11/12 16:14:34;;;;;;;13.40;9.70;;;8.80;99.90;;;;;;4973107;28;20231;-74
2023/11/12 16:17:01;;;;;;;11.23;8.85;;;8.80;99.90;;;;;;4974694;28;20237;-75
2023/11/12 16:19:29;;;;;;;12.25;8.48;;;8.80;99.90;;;;;;4978072;28;20207;-75
2023/11/12 16:21:56;;;;;;;12.15;9.27;;;8.70;99.90;;;;;;4964283;28;20213;-75
2023/11/12 16:24:23;;;;;;;11.27;8.05;;;8.70;99.90;;;;;;4975307;28;20633;-74
2023/11/12 16:26:55;;;;;;;9.52;8.13;;;8.70;99.90;;;;;;4974208;28;20227;-75
2023/11/12 16:29:21;;;;;;;16.58;10.38;;;8.60;99.90;;;;;;4974588;28;20866;-75
2023/11/12 16:31:48;;;;;;;15.32;10.65;;;8.60;99.90;;;;;;4977358;28;20230;-75
2023/11/12 16:34:15;;;;;;;14.30;9.90;;;8.60;99.90;;;;;;4976990;28;20287;-74
2023/11/12 16:36:43;;;;;;;11.73;9.07;;;8.60;99.90;;;;;;4975900;28;20613;-75
2023/11/12 16:39:12;;;;;;;13.18;9.25;;;8.60;99.90;;;;;;4968244;28;20202;-74
2023/11/12 16:41:38;;;;;;;11.45;9.05;;;8.60;99.90;;;;;;4972725;28;20214;-75
2023/11/12 16:44:06;;;;;;;18.65;9.90;;;8.50;99.90;;;;;;4972301;28;20215;-76
2023/11/12 16:46:33;;;;;;;13.73;10.07;;;8.50;99.90;;;;;;4974267;28;20253;-75
2023/11/12 16:49:00;;;;;;;14.57;9.77;;;8.50;99.90;;;;;;4975710;28;20320;-76
2023/11/12 16:51:27;;;;;;;13.18;10.15;;;8.40;99.90;;;;;;4969815;28;20578;-75
2023/11/12 16:53:55;;;;;;;15.88;9.00;;;8.40;99.90;;;;;;4974312;28;20247;-76
2023/11/12 16:56:22;;;;;;;10.40;8.20;;;8.40;99.90;;;;;;4978947;28;20240;-76
2023/11/12 16:58:49;;;;;;;14.57;10.18;;;8.30;99.90;;;;;;4981344;28;20583;-77
2023/11/12 17:01:15;;;;;;;14.23;9.05;;;8.30;99.90;;;;;;4976821;28;20209;-77
2023/11/12 17:03:43;;;;;;;13.65;10.07;;;8.30;99.90;;;;;;4975255;28;20221;-76
2023/11/12 17:06:10;;;;;;;12.80;9.98;;;8.20;99.90;;;;;;4979189;28;20252;-77
2023/11/12 17:08:37;;;;;;;13.85;10.10;;;8.20;99.90;;;;;;4978793;28;20205;-77
2023/11/12 17:11:06;;;;;;;15.48;11.43;;;8.20;99.90;;;;;;4975155;28;20218;-76
2023/11/12 17:13:34;;;;;;;16.73;10.23;;;8.20;99.90;;;;;;4976200;28;20296;-75
2023/11/12 17:16:00;;;;;;;15.43;10.48;;;8.10;99.90;;;;;;4974435;28;20711;-76
2023/11/12 17:18:28;;;;;;;17.25;12.15;;;8.10;99.90;;;;;;4975929;28;20570;-77
2023/11/12 17:20:55;;;;;;;16.13;11.00;;;8.10;99.90;;;;;;4977927;28;20209;-76
2023/11/12 17:23:22;;;;;;;24.58;14.52;;;8.10;99.90;;;;;;4974866;28;20218;-76
2023/11/12 17:25:49;;;;;;;34.65;17.30;;;8.10;99.90;;;;;;4978930;28;20232;-77
2023/11/12 17:28:17;;;;;;;33.22;15.50;;;8.00;99.90;;;;;;4976636;28;20205;-76
2023/11/12 17:30:44;;;;;;;20.98;12.60;;;8.00;99.90;;;;;;4973799;28;20299;-76
2023/11/12 17:33:11;;;;;;;17.73;11.00;;;8.00;99.90;;;;;;4977546;28;20202;-76
2023/11/12 17:35:38;;;;;;;25.33;13.35;;;8.00;99.90;;;;;;4971033;28;20247;-76
2023/11/12 17:38:06;;;;;;;23.30;13.30;;;8.00;99.90;;;;;;4976335;28;20240;-76
2023/11/12 17:40:33;;;;;;;20.25;12.02;;;7.90;99.90;;;;;;4976869;28;20794;-76
2023/11/12 17:43:00;;;;;;;20.65;12.45;;;7.90;99.90;;;;;;4976438;28;20663;-77
2023/11/12 17:45:28;;;;;;;15.95;12.18;;;7.90;99.90;;;;;;4975306;28;20215;-76
2023/11/12 17:47:55;;;;;;;20.90;13.23;;;7.80;99.90;;;;;;4977453;28;20595;-76
2023/11/12 17:50:22;;;;;;;34.67;20.95;;;7.80;99.90;;;;;;4975636;28;20211;-76